createdAt,value
2023-08-29T00:01:33.214Z,19.76
2023-08-29T00:04:49.988Z,19.76
2023-08-29T00:08:07.297Z,19.78
2023-08-29T00:11:25.488Z,19.79
2023-08-29T00:14:42.328Z,19.79
2023-08-29T00:17:58.795Z,19.76
2023-08-29T00:21:15.507Z,19.77
2023-08-29T00:24:32.078Z,19.80
2023-08-29T00:27:48.642Z,19.84
2023-08-29T00:31:05.305Z,19.76
2023-08-29T00:34:21.803Z,19.81
2023-08-29T00:37:38.406Z,19.82
2023-08-29T00:40:55.284Z,19.84
2023-08-29T00:44:12.546Z,19.84
2023-08-29T00:47:29.640Z,19.84
2023-08-29T00:50:47.146Z,19.80
2023-08-29T00:54:04.181Z,19.80
2023-08-29T00:57:21.024Z,19.79
2023-08-29T01:00:39.227Z,19.79
2023-08-29T01:03:56.063Z,19.77
2023-08-29T01:07:14.245Z,19.72
2023-08-29T01:10:36.089Z,19.70
2023-08-29T01:13:58.048Z,19.65
2023-08-29T01:17:20.875Z,19.65
2023-08-29T01:20:41.777Z,19.67
2023-08-29T01:24:02.546Z,19.66
2023-08-29T01:27:21.531Z,19.65
2023-08-29T01:30:39.200Z,19.62
2023-08-29T01:33:56.459Z,19.60
2023-08-29T01:37:13.164Z,19.62
2023-08-29T01:40:30.063Z,19.59
2023-08-29T01:43:46.607Z,19.55
2023-08-29T01:47:03.414Z,19.56
2023-08-29T01:50:20.779Z,19.51
2023-08-29T01:53:39.512Z,19.52
2023-08-29T01:56:57.770Z,19.51
2023-08-29T02:00:18.254Z,19.52
2023-08-29T02:03:34.235Z,19.53
2023-08-29T02:06:51.226Z,19.52
2023-08-29T02:10:08.154Z,19.49
2023-08-29T02:13:24.854Z,19.48
2023-08-29T02:16:41.606Z,19.46
2023-08-29T02:20:00.059Z,19.47
2023-08-29T02:23:16.978Z,19.47
2023-08-29T02:26:33.655Z,19.45
2023-08-29T02:29:50.240Z,19.40
2023-08-29T02:33:07.340Z,19.33
2023-08-29T02:36:25.182Z,19.33
2023-08-29T02:39:43.041Z,19.30
2023-08-29T02:42:59.932Z,19.26
2023-08-29T02:46:18.510Z,19.17
2023-08-29T02:49:37.589Z,19.00
2023-08-29T02:52:54.596Z,18.97
2023-08-29T02:56:11.800Z,18.96
2023-08-29T02:59:28.612Z,18.91
2023-08-29T03:02:46.026Z,18.87
2023-08-29T03:06:07.268Z,18.89
2023-08-29T03:09:26.672Z,18.86
2023-08-29T03:12:44.851Z,18.77
2023-08-29T03:16:11.065Z,18.68
2023-08-29T03:19:29.812Z,18.65
2023-08-29T03:26:29.283Z,18.49
2023-08-29T03:29:50.223Z,18.46
2023-08-29T03:33:07.476Z,18.45
2023-08-29T03:36:26.657Z,18.43
2023-08-29T03:39:44.136Z,18.41
2023-08-29T03:43:01.294Z,18.44
2023-08-29T03:46:19.090Z,18.42
2023-08-29T03:49:37.567Z,18.36
2023-08-29T03:53:32.592Z,18.39
2023-08-29T03:56:50.881Z,18.35
2023-08-29T04:00:11.782Z,18.36
2023-08-29T04:03:32.975Z,18.37
2023-08-29T04:06:51.238Z,18.49
2023-08-29T04:10:08.349Z,18.55
2023-08-29T04:13:26.036Z,18.52
2023-08-29T04:16:51.090Z,18.51
2023-08-29T04:20:10.132Z,18.52
2023-08-29T04:23:27.017Z,18.47
2023-08-29T04:26:44.242Z,18.54
2023-08-29T04:30:01.119Z,18.57
2023-08-29T04:33:18.161Z,18.56
2023-08-29T04:36:35.947Z,18.55
2023-08-29T04:39:52.916Z,18.58
2023-08-29T04:43:10.251Z,18.66
2023-08-29T04:46:29.828Z,18.64
2023-08-29T04:49:46.566Z,18.56
2023-08-29T04:53:22.539Z,18.41
2023-08-29T04:56:51.306Z,18.41
2023-08-29T05:00:07.372Z,18.40
2023-08-29T05:03:28.124Z,18.52
2023-08-29T05:06:46.118Z,18.58
2023-08-29T05:10:03.342Z,18.61
2023-08-29T05:13:20.253Z,18.64
2023-08-29T05:16:38.292Z,18.59
2023-08-29T05:19:56.168Z,18.54
2023-08-29T05:23:15.481Z,18.63
2023-08-29T05:26:34.486Z,18.74
2023-08-29T05:29:51.862Z,18.85
2023-08-29T05:33:09.330Z,18.94
2023-08-29T05:36:26.373Z,18.89
2023-08-29T05:39:43.336Z,18.91
2023-08-29T05:43:00.238Z,19.01
2023-08-29T05:46:17.281Z,19.01
2023-08-29T05:49:34.172Z,19.04
2023-08-29T05:52:50.955Z,18.98
2023-08-29T05:56:07.752Z,19.02
2023-08-29T05:59:27.055Z,19.12
2023-08-29T06:02:44.270Z,19.22
2023-08-29T06:06:03.878Z,19.27
2023-08-29T06:09:21.702Z,19.29
2023-08-29T06:12:38.499Z,19.35
2023-08-29T06:15:55.366Z,19.57
2023-08-29T06:19:12.468Z,19.76
2023-08-29T06:22:29.573Z,19.87
2023-08-29T06:25:47.022Z,20.11
2023-08-29T06:29:03.890Z,20.23
2023-08-29T06:32:20.684Z,20.35
2023-08-29T06:35:38.881Z,20.55
2023-08-29T06:38:57.156Z,20.77
2023-08-29T06:42:24.300Z,21.11
2023-08-29T06:46:03.847Z,21.41
2023-08-29T06:49:35.961Z,21.73
2023-08-29T06:52:53.852Z,21.98
2023-08-29T06:56:10.806Z,22.27
2023-08-29T06:59:27.583Z,22.51
2023-08-29T07:02:44.518Z,22.76
2023-08-29T07:06:08.825Z,22.92
2023-08-29T07:09:27.374Z,22.89
2023-08-29T07:12:44.430Z,23.04
2023-08-29T07:16:01.042Z,23.14
2023-08-29T07:19:18.059Z,23.27
2023-08-29T07:22:34.621Z,23.56
2023-08-29T07:25:53.297Z,23.97
2023-08-29T07:29:07.482Z,24.02
2023-08-29T07:32:23.814Z,23.73
2023-08-29T07:35:40.387Z,24.33
2023-08-29T07:38:57.083Z,24.86
2023-08-29T07:42:14.141Z,25.16
2023-08-29T07:45:30.922Z,25.66
2023-08-29T07:48:47.437Z,25.80
2023-08-29T07:52:04.697Z,26.12
2023-08-29T07:55:22.642Z,26.27
2023-08-29T07:58:39.188Z,26.18
2023-08-29T08:01:56.430Z,25.92
2023-08-29T08:05:15.143Z,25.60
2023-08-29T08:08:31.891Z,25.95
2023-08-29T08:11:48.533Z,25.91
2023-08-29T08:15:06.508Z,25.94
2023-08-29T08:18:23.835Z,26.18
2023-08-29T08:21:40.459Z,26.38
2023-08-29T08:24:57.005Z,26.90
2023-08-29T08:28:15.691Z,27.52
2023-08-29T08:31:32.421Z,27.54
2023-08-29T08:34:49.043Z,27.53
2023-08-29T08:38:07.500Z,27.47
2023-08-29T08:41:26.923Z,27.85
2023-08-29T08:44:44.644Z,28.08
2023-08-29T08:48:02.078Z,27.87
2023-08-29T08:51:23.272Z,28.00
2023-08-29T08:54:40.229Z,27.79
2023-08-29T08:57:57.165Z,28.02
2023-08-29T09:01:13.959Z,28.37
2023-08-29T09:04:30.737Z,28.46
2023-08-29T09:07:49.852Z,28.44
2023-08-29T09:11:10.831Z,28.28
2023-08-29T09:14:27.578Z,28.45
2023-08-29T09:17:44.145Z,28.53
2023-08-29T09:21:02.826Z,28.79
2023-08-29T09:24:22.104Z,28.41
2023-08-29T09:27:41.443Z,28.69
2023-08-29T09:30:58.196Z,28.86
2023-08-29T09:34:14.985Z,28.85
2023-08-29T09:37:31.638Z,28.39
2023-08-29T09:40:58.291Z,28.28
2023-08-29T09:44:21.555Z,28.01
2023-08-29T09:47:41.721Z,27.93
2023-08-29T09:50:59.883Z,27.81
2023-08-29T09:54:19.983Z,27.56
2023-08-29T09:57:39.212Z,27.31
2023-08-29T10:00:58.351Z,27.24
2023-08-29T10:04:25.642Z,27.02
2023-08-29T10:07:46.854Z,26.54
2023-08-29T10:11:04.929Z,26.47
2023-08-29T10:14:22.787Z,26.27
2023-08-29T10:17:41.590Z,26.29
2023-08-29T10:21:01.169Z,26.15
2023-08-29T10:24:20.171Z,26.20
2023-08-29T10:27:36.857Z,26.45
2023-08-29T10:30:56.968Z,26.74
2023-08-29T10:34:14.042Z,26.82
2023-08-29T10:37:31.813Z,26.96
2023-08-29T10:40:48.609Z,27.03
2023-08-29T10:44:45.586Z,27.07
2023-08-29T10:48:04.816Z,26.79
2023-08-29T10:51:24.569Z,26.75
2023-08-29T10:54:41.212Z,26.68
2023-08-29T10:58:00.563Z,26.71
2023-08-29T11:01:32.952Z,26.79
2023-08-29T11:08:28.129Z,26.78
2023-08-29T11:11:45.175Z,26.82
2023-08-29T11:15:02.864Z,26.69
2023-08-29T11:18:37.533Z,26.57
2023-08-29T11:21:56.258Z,26.49
2023-08-29T11:25:15.232Z,26.43
2023-08-29T11:28:31.941Z,26.41
2023-08-29T11:31:52.470Z,26.25
2023-08-29T11:35:09.296Z,26.06
2023-08-29T11:38:25.939Z,25.89
2023-08-29T11:42:13.922Z,25.77
2023-08-29T11:45:28.131Z,25.57
2023-08-29T11:48:23.834Z,25.60
2023-08-29T11:51:41.088Z,25.52
2023-08-29T11:54:59.470Z,25.35
2023-08-29T11:58:14.285Z,25.04
2023-08-29T12:01:31.225Z,24.86
2023-08-29T12:04:52.757Z,24.63
2023-08-29T12:08:09.344Z,24.45
2023-08-29T12:11:26.863Z,24.42
2023-08-29T12:15:03.859Z,24.34
2023-08-29T12:18:31.240Z,24.26
2023-08-29T12:21:47.917Z,24.35
2023-08-29T12:25:05.246Z,24.38
2023-08-29T12:28:21.801Z,24.45
2023-08-29T12:31:38.330Z,24.49
2023-08-29T12:34:57.012Z,24.56
2023-08-29T12:38:14.781Z,24.63
2023-08-29T12:41:31.812Z,24.71
2023-08-29T12:44:48.544Z,24.75
2023-08-29T12:48:05.817Z,24.81
2023-08-29T12:51:22.738Z,24.86
2023-08-29T12:54:40.506Z,25.00
2023-08-29T12:57:57.206Z,25.06
2023-08-29T13:01:15.395Z,25.16
2023-08-29T13:04:29.957Z,25.25
2023-08-29T13:12:43.760Z,25.37
2023-08-29T13:38:51.830Z,25.47
2023-08-29T13:42:10.303Z,25.38
2023-08-29T13:45:26.155Z,25.30
2023-08-29T13:48:42.447Z,25.20
2023-08-29T13:52:01.600Z,25.07
2023-08-29T13:55:18.751Z,24.87
2023-08-29T13:58:35.385Z,24.61
2023-08-29T14:01:51.983Z,24.59
2023-08-29T14:05:08.821Z,24.42
2023-08-29T14:08:25.406Z,24.34
2023-08-29T14:11:41.922Z,24.33
2023-08-29T14:14:58.465Z,24.33
2023-08-29T14:18:15.552Z,24.28
2023-08-29T14:21:32.258Z,24.23
2023-08-29T14:24:49.056Z,24.21
2023-08-29T14:28:08.767Z,24.16
2023-08-29T14:31:29.433Z,24.20
2023-08-29T14:34:46.040Z,24.28
2023-08-29T14:38:03.054Z,24.28
2023-08-29T14:41:20.872Z,24.25
2023-08-29T14:44:40.910Z,24.26
2023-08-29T14:48:00.609Z,24.26
2023-08-29T14:51:17.860Z,24.18
2023-08-29T14:54:34.537Z,24.15
2023-08-29T14:57:51.162Z,24.12
2023-08-29T15:01:09.234Z,23.93
2023-08-29T15:04:28.348Z,23.95
2023-08-29T15:07:45.213Z,23.94
2023-08-29T15:11:04.485Z,23.92
2023-08-29T15:14:21.080Z,23.87
2023-08-29T15:17:37.978Z,23.89
2023-08-29T15:20:55.461Z,23.93
2023-08-29T15:24:12.824Z,23.94
2023-08-29T15:27:29.309Z,23.91
2023-08-29T15:30:46.108Z,23.87
2023-08-29T15:34:02.896Z,23.85
2023-08-29T15:37:19.503Z,23.83
2023-08-29T15:40:36.133Z,23.85
2023-08-29T15:43:53.192Z,23.82
2023-08-29T15:47:10.197Z,23.82
2023-08-29T15:50:26.958Z,23.68
2023-08-29T15:53:43.594Z,23.63
2023-08-29T15:57:01.799Z,23.59
2023-08-29T16:00:21.976Z,23.50
2023-08-29T16:03:38.546Z,23.37
2023-08-29T16:06:55.565Z,23.21
2023-08-29T16:10:15.588Z,23.17
2023-08-29T16:13:32.746Z,23.18
2023-08-29T16:16:52.181Z,23.20
2023-08-29T16:20:10.478Z,23.17
2023-08-29T16:23:27.165Z,23.13
2023-08-29T16:26:43.762Z,23.08
2023-08-29T16:30:04.267Z,23.03
2023-08-29T16:33:20.818Z,23.02
2023-08-29T16:36:37.492Z,23.06
2023-08-29T16:39:54.125Z,23.07
2023-08-29T16:43:11.034Z,23.06
2023-08-29T16:46:27.757Z,23.00
2023-08-29T16:49:44.721Z,22.81
2023-08-29T16:53:06.221Z,22.75
2023-08-29T16:56:22.857Z,22.72
2023-08-29T16:59:56.004Z,22.69
2023-08-29T17:06:47.477Z,22.60
2023-08-29T17:10:05.628Z,22.55
2023-08-29T17:13:22.301Z,22.52
2023-08-29T17:16:42.498Z,22.43
2023-08-29T17:19:59.886Z,22.39
2023-08-29T17:23:16.853Z,22.36
2023-08-29T17:26:33.345Z,22.29
2023-08-29T17:29:50.016Z,22.20
2023-08-29T17:33:06.810Z,22.07
2023-08-29T17:36:23.383Z,22.08
2023-08-29T17:39:40.092Z,22.07
2023-08-29T17:43:03.888Z,22.09
2023-08-29T17:46:19.398Z,22.14
2023-08-29T17:49:36.122Z,22.18
2023-08-29T17:52:52.820Z,22.13
2023-08-29T18:00:21.084Z,22.15
2023-08-29T18:03:37.955Z,22.09
2023-08-29T18:06:54.690Z,22.07
2023-08-29T18:10:48.392Z,22.09
2023-08-29T18:18:56.570Z,22.04
2023-08-29T18:22:14.311Z,21.91
2023-08-29T18:25:31.921Z,21.89
2023-08-29T18:28:48.595Z,21.86
2023-08-29T18:32:05.356Z,21.84
2023-08-29T18:35:22.592Z,21.82
2023-08-29T18:38:39.496Z,21.78
2023-08-29T18:41:56.195Z,21.80
2023-08-29T18:45:14.337Z,21.79
2023-08-29T18:48:31.573Z,21.76
2023-08-29T18:51:48.130Z,21.68
2023-08-29T18:55:05.366Z,21.69
2023-08-29T18:58:22.061Z,21.65
2023-08-29T19:01:39.120Z,21.62
2023-08-29T19:04:55.787Z,21.54
2023-08-29T19:08:13.065Z,21.47
2023-08-29T19:11:29.644Z,21.46
2023-08-29T19:14:48.279Z,21.49
2023-08-29T19:18:05.331Z,21.49
2023-08-29T19:21:27.076Z,21.49
2023-08-29T19:28:29.125Z,21.36
2023-08-29T19:31:52.878Z,21.36
2023-08-29T19:35:52.624Z,21.40
2023-08-29T19:39:21.454Z,21.46
2023-08-29T19:42:43.596Z,21.44
2023-08-29T19:46:10.821Z,21.32
2023-08-29T19:49:45.476Z,21.30
2023-08-29T19:53:05.370Z,21.31
2023-08-29T19:56:25.581Z,21.27
2023-08-29T19:59:42.350Z,21.17
2023-08-29T20:02:59.018Z,21.12
2023-08-29T20:06:18.032Z,21.08
2023-08-29T20:09:40.598Z,21.09
2023-08-29T20:12:57.546Z,20.98
2023-08-29T20:16:16.067Z,20.96
2023-08-29T20:19:32.146Z,20.97
2023-08-29T20:22:48.534Z,20.94
2023-08-29T20:26:09.077Z,20.94
2023-08-29T20:29:26.183Z,20.96
2023-08-29T20:32:42.962Z,21.01
2023-08-29T20:35:59.612Z,21.01
2023-08-29T20:39:16.650Z,20.97
2023-08-29T20:42:33.279Z,20.98
2023-08-29T20:45:51.252Z,20.89
2023-08-29T20:49:08.076Z,20.87
2023-08-29T20:52:26.789Z,20.80
2023-08-29T20:55:45.783Z,20.76
2023-08-29T20:59:05.409Z,20.69
2023-08-29T21:02:35.272Z,20.71
2023-08-29T21:05:59.177Z,20.74
2023-08-29T21:09:16.383Z,20.74
2023-08-29T21:12:35.652Z,20.77
2023-08-29T21:15:54.883Z,20.72
2023-08-29T21:19:11.658Z,20.64
2023-08-29T21:22:28.399Z,20.64
2023-08-29T21:25:46.766Z,20.60
2023-08-29T21:29:03.619Z,20.58
2023-08-29T21:32:20.260Z,20.52
2023-08-29T21:41:55.447Z,20.46
2023-08-29T21:45:13.327Z,20.43
2023-08-29T21:48:32.072Z,20.41
2023-08-29T21:51:48.608Z,20.40
2023-08-29T21:55:05.226Z,20.48
2023-08-29T21:58:21.953Z,20.54
2023-08-29T22:01:38.653Z,20.57
2023-08-29T22:04:57.278Z,20.59
2023-08-29T22:08:14.534Z,20.56
2023-08-29T22:11:31.164Z,20.58
2023-08-29T22:14:47.693Z,20.55
2023-08-29T22:18:05.433Z,20.54
2023-08-29T22:21:21.983Z,20.55
2023-08-29T22:24:38.533Z,20.53
2023-08-29T22:27:55.201Z,20.48
2023-08-29T22:31:13.292Z,20.51
2023-08-29T22:34:29.993Z,20.46
2023-08-29T22:37:46.662Z,20.44
2023-08-29T22:41:24.870Z,20.32
2023-08-29T22:44:30.435Z,20.32
2023-08-29T22:47:47.392Z,20.36
2023-08-29T22:51:03.987Z,20.45
2023-08-29T22:54:20.646Z,20.52
2023-08-29T22:57:37.180Z,20.58
2023-08-29T23:00:54.047Z,20.61
2023-08-29T23:04:11.121Z,20.62
2023-08-29T23:07:29.889Z,20.65
2023-08-29T23:10:45.167Z,20.59
2023-08-29T23:14:01.874Z,20.61
2023-08-29T23:17:20.322Z,20.64
2023-08-29T23:20:37.028Z,20.64
2023-08-29T23:23:55.242Z,20.63
2023-08-29T23:27:12.024Z,20.63
2023-08-29T23:30:29.937Z,20.62
2023-08-29T23:33:56.526Z,20.57
2023-08-29T23:37:13.347Z,20.54
2023-08-29T23:40:29.957Z,20.52
2023-08-29T23:43:46.615Z,20.48
2023-08-29T23:47:03.257Z,20.43
2023-08-29T23:50:20.774Z,20.39
2023-08-29T23:53:37.417Z,20.33
2023-08-29T23:56:54.171Z,20.31
